Time;durP1;ratioP1;P1;durP2;ratioP2;P2;SDS_P1;SDS_P2;PMS_P1;PMS_P2;Temp;Humidity;BMP_temperature;BMP_pressure;BME280_temperature;BME280_humidity;BME280_pressure;Samples;Min_cycle;Max_cycle;Signal;HPM_P1;HPM_P2
2022/01/29 00:00:34;;;;;;;25.52;12.63;;;;;;;4.04;100.00;101925.06;4989669;28;20397;-64
2022/01/29 00:03:00;;;;;;;25.15;13.05;;;;;;;3.91;100.00;101925.63;4994491;28;20084;-64
2022/01/29 00:05:25;;;;;;;28.88;12.55;;;;;;;3.86;100.00;101929.88;5010024;28;20026;-64
2022/01/29 00:07:51;;;;;;;23.52;13.48;;;;;;;3.81;100.00;101928.88;5009385;28;20444;-64
2022/01/29 00:10:16;;;;;;;26.40;14.02;;;;;;;3.73;100.00;101925.16;5009609;28;20101;-64
2022/01/29 00:12:42;;;;;;;24.63;12.45;;;;;;;3.71;100.00;101933.03;5009832;28;20030;-64
2022/01/29 00:15:08;;;;;;;25.38;12.43;;;;;;;3.65;100.00;101916.19;5010242;28;20026;-63
2022/01/29 00:17:34;;;;;;;25.05;12.05;;;;;;;3.63;100.00;101917.88;5009512;28;20066;-64
2022/01/29 00:19:59;;;;;;;22.65;12.43;;;;;;;3.57;100.00;101909.84;5001803;28;20173;-64
2022/01/29 00:22:25;;;;;;;26.77;12.65;;;;;;;3.49;100.00;101904.38;4991593;28;20053;-63
2022/01/29 00:24:51;;;;;;;22.33;12.75;;;;;;;3.49;100.00;101919.28;4994317;28;20030;-64
2022/01/29 00:27:18;;;;;;;26.92;12.98;;;;;;;3.49;100.00;101924.56;4993658;28;20061;-64
2022/01/29 00:29:44;;;;;;;23.35;13.02;;;;;;;3.44;100.00;101905.13;4993616;28;20416;-65
2022/01/29 00:32:11;;;;;;;28.33;12.73;;;;;;;3.46;100.00;101914.81;4993671;28;20063;-64
2022/01/29 00:34:37;;;;;;;29.25;15.05;;;;;;;3.40;100.00;101908.50;5011673;28;20022;-64
2022/01/29 00:37:03;;;;;;;26.73;14.00;;;;;;;3.37;100.00;101898.81;5013546;28;20030;-64
2022/01/29 00:39:29;;;;;;;25.67;13.93;;;;;;;3.38;100.00;101915.47;5013046;28;20026;-64
2022/01/29 00:41:54;;;;;;;32.05;13.70;;;;;;;3.42;100.00;101919.97;5013184;28;20033;-64
2022/01/29 00:44:20;;;;;;;29.33;14.25;;;;;;;3.42;100.00;101927.84;5012880;28;20034;-64
2022/01/29 00:46:45;;;;;;;28.20;13.90;;;;;;;3.43;100.00;101940.16;5009764;28;20026;-64
2022/01/29 00:49:12;;;;;;;27.17;14.40;;;;;;;3.35;100.00;101916.28;4993137;28;20022;-63
2022/01/29 00:51:38;;;;;;;24.30;13.57;;;;;;;3.35;100.00;101915.38;4993853;28;20095;-64
2022/01/29 00:54:03;;;;;;;28.13;13.68;;;;;;;3.38;100.00;101911.09;5008444;28;20038;-64
2022/01/29 00:56:29;;;;;;;27.13;13.38;;;;;;;3.39;100.00;101918.16;4995556;28;20030;-64
2022/01/29 00:58:54;;;;;;;31.50;13.32;;;;;;;3.44;100.00;101910.38;4992915;28;20386;-64
2022/01/29 01:01:19;;;;;;;25.80;14.25;;;;;;;3.50;100.00;101913.16;4993317;28;20030;-64
2022/01/29 01:03:45;;;;;;;27.33;12.88;;;;;;;3.55;100.00;101916.81;4999572;28;20049;-64
2022/01/29 01:06:11;;;;;;;22.33;11.95;;;;;;;3.60;100.00;101928.34;4993348;28;20072;-65
2022/01/29 01:08:36;;;;;;;27.85;13.15;;;;;;;3.61;100.00;101925.75;4993023;28;20065;-64
2022/01/29 01:11:03;;;;;;;28.83;12.73;;;;;;;3.59;100.00;101916.06;5008900;28;20469;-63
2022/01/29 01:13:30;;;;;;;25.40;12.75;;;;;;;3.64;100.00;101911.78;5012611;28;20026;-64
2022/01/29 01:15:55;;;;;;;26.02;11.95;;;;;;;3.59;100.00;101919.53;5012448;28;20030;-64
2022/01/29 01:18:21;;;;;;;29.08;13.15;;;;;;;3.63;100.00;101924.06;5011833;28;20430;-66
2022/01/29 01:20:46;;;;;;;29.25;14.50;;;;;;;3.64;100.00;101924.94;5012203;28;20025;-63
2022/01/29 01:23:12;;;;;;;29.88;13.35;;;;;;;3.65;100.00;101927.63;5011982;28;20389;-64
2022/01/29 01:25:37;;;;;;;25.92;12.93;;;;;;;3.65;100.00;101924.09;5012125;28;20030;-63
2022/01/29 01:28:03;;;;;;;24.90;13.25;;;;;;;3.67;100.00;101901.34;5005123;28;20084;-64
2022/01/29 01:30:28;;;;;;;28.50;12.65;;;;;;;3.73;100.00;101906.75;4992399;28;20018;-64
2022/01/29 01:32:54;;;;;;;32.80;13.32;;;;;;;3.77;100.00;101892.84;4994928;28;20088;-64
2022/01/29 01:35:31;;;;;;;26.10;14.65;;;;;;;3.84;100.00;101902.63;5008431;28;20105;-64
2022/01/29 01:38:09;;;;;;;30.85;13.52;;;;;;;3.80;100.00;101885.00;5004925;28;20076;-63
2022/01/29 01:40:36;;;;;;;24.27;12.65;;;;;;;3.80;100.00;101885.00;4992177;28;20034;-63
2022/01/29 01:43:02;;;;;;;29.42;13.82;;;;;;;3.74;100.00;101874.34;4992312;28;20419;-63
2022/01/29 01:45:28;;;;;;;27.13;12.80;;;;;;;3.74;100.00;101855.91;4992138;28;20072;-64
2022/01/29 01:47:54;;;;;;;28.30;13.18;;;;;;;3.84;100.00;101878.94;4992189;28;20458;-63
2022/01/29 01:50:21;;;;;;;27.95;13.48;;;;;;;3.89;100.00;101879.94;4991776;28;20533;-64
2022/01/29 01:52:49;;;;;;;22.35;12.52;;;;;;;3.87;100.00;101872.00;4992028;28;20058;-63
2022/01/29 01:55:15;;;;;;;27.33;13.15;;;;;;;3.95;100.00;101890.66;4991465;28;20053;-63
2022/01/29 01:57:40;;;;;;;30.02;13.20;;;;;;;3.94;100.00;101881.84;4992556;28;20030;-63
2022/01/29 02:00:07;;;;;;;28.65;14.25;;;;;;;3.95;100.00;101877.47;4991431;28;20041;-63
2022/01/29 02:02:33;;;;;;;27.05;12.45;;;;;;;3.94;100.00;101868.69;4991702;28;20081;-63
2022/01/29 02:04:58;;;;;;;27.38;13.88;;;;;;;3.95;100.00;101867.81;5010937;28;20168;-64
2022/01/29 02:07:27;;;;;;;28.13;12.90;;;;;;;4.01;100.00;101870.63;5011607;28;20021;-64
2022/01/29 02:09:52;;;;;;;28.23;13.45;;;;;;;4.07;100.00;101861.06;5010881;28;20037;-63
2022/01/29 02:12:18;;;;;;;28.95;13.65;;;;;;;4.04;100.00;101851.34;5011076;28;20030;-63
2022/01/29 02:14:45;;;;;;;27.30;12.57;;;;;;;4.00;100.00;101844.25;5011017;28;20030;-63
2022/01/29 02:17:11;;;;;;;24.02;13.15;;;;;;;3.96;100.00;101837.13;5011602;28;20030;-63
2022/01/29 02:19:37;;;;;;;26.65;13.32;;;;;;;3.96;100.00;101834.50;4996032;28;20041;-63
2022/01/29 02:22:04;;;;;;;26.08;13.23;;;;;;;3.87;100.00;101836.94;4990831;28;20157;-63
2022/01/29 02:24:30;;;;;;;25.77;12.32;;;;;;;3.83;100.00;101832.44;4991196;28;20061;-63
2022/01/29 02:26:55;;;;;;;20.73;11.48;;;;;;;3.84;100.00;101831.56;4991848;28;20387;-63
2022/01/29 02:29:21;;;;;;;25.15;12.85;;;;;;;3.83;100.00;101835.06;4990650;28;20132;-63
2022/01/29 02:31:52;;;;;;;22.88;11.57;;;;;;;3.82;100.00;101846.47;4991476;28;20438;-63
2022/01/29 02:34:18;;;;;;;30.02;13.50;;;;;;;3.81;100.00;101835.03;5006300;28;20034;-63
2022/01/29 02:36:45;;;;;;;24.63;11.38;;;;;;;3.80;100.00;101832.38;5010633;28;20514;-63
2022/01/29 02:39:12;;;;;;;27.00;12.93;;;;;;;3.80;100.00;101827.09;5010819;28;20038;-63
2022/01/29 02:41:41;;;;;;;28.20;12.52;;;;;;;3.82;100.00;101825.41;5011189;28;20029;-63
2022/01/29 02:44:07;;;;;;;25.98;12.25;;;;;;;3.82;100.00;101814.88;5010296;28;20029;-63
2022/01/29 02:49:13;;;;;;;24.95;12.18;;;;;;;3.82;100.00;101820.16;5003446;28;20523;-63
2022/01/29 02:51:50;;;;;;;20.20;11.45;;;;;;;3.82;100.00;101814.88;4991324;28;20037;-64
2022/01/29 02:54:16;;;;;;;25.33;12.23;;;;;;;3.76;100.00;101818.25;4990916;28;20109;-64
2022/01/29 02:56:41;;;;;;;22.45;12.07;;;;;;;3.78;100.00;101813.00;4993498;28;20080;-63
2022/01/29 02:59:07;;;;;;;27.52;11.80;;;;;;;3.79;100.00;101812.16;4990885;28;20026;-63
2022/01/29 03:01:32;;;;;;;23.05;10.68;;;;;;;3.76;100.00;101793.66;4990859;28;20026;-63
2022/01/29 03:03:58;;;;;;;24.73;11.05;;;;;;;3.73;100.00;101786.59;5003370;28;20482;-63
2022/01/29 03:06:23;;;;;;;21.23;10.27;;;;;;;3.78;100.00;101778.81;5007346;28;20036;-63
2022/01/29 03:08:48;;;;;;;28.83;13.68;;;;;;;3.78;100.00;101787.59;4990634;28;20097;-63
2022/01/29 03:11:19;;;;;;;21.60;10.25;;;;;;;3.80;100.00;101795.53;4990188;28;20509;-63
2022/01/29 03:13:44;;;;;;;23.10;10.85;;;;;;;3.83;100.00;101795.59;4991282;28;20030;-63
2022/01/29 03:16:10;;;;;;;26.10;11.43;;;;;;;3.78;100.00;101791.97;4990946;28;20511;-63
2022/01/29 03:18:35;;;;;;;22.98;10.85;;;;;;;3.78;100.00;101797.22;4992902;28;20560;-63
2022/01/29 03:21:00;;;;;;;18.65;10.60;;;;;;;3.74;100.00;101795.41;4990025;28;20034;-64
2022/01/29 03:23:26;;;;;;;25.67;11.65;;;;;;;3.75;100.00;101794.53;4990301;28;20033;-64
2022/01/29 03:25:51;;;;;;;21.58;10.95;;;;;;;3.75;100.00;101786.63;4993993;28;20475;-64
2022/01/29 03:28:18;;;;;;;23.27;11.45;;;;;;;3.78;100.00;101795.50;4999764;28;20067;-64
2022/01/29 03:30:44;;;;;;;25.23;11.27;;;;;;;3.83;100.00;101793.84;5010323;28;20140;-64
2022/01/29 03:33:10;;;;;;;21.00;11.00;;;;;;;3.89;100.00;101800.97;5009982;28;20022;-64
2022/01/29 03:35:35;;;;;;;27.55;12.40;;;;;;;3.86;100.00;101785.13;5007072;28;20026;-64
2022/01/29 03:38:01;;;;;;;24.15;11.73;;;;;;;3.98;100.00;101790.66;5010036;28;20112;-65
2022/01/29 03:40:26;;;;;;;27.08;11.60;;;;;;;3.98;100.00;101790.66;5009957;28;20038;-64
2022/01/29 03:43:05;;;;;;;25.35;13.10;;;;;;;4.02;100.00;101796.03;5010429;28;20029;-64
2022/01/29 03:45:31;;;;;;;25.25;12.10;;;;;;;4.03;100.00;101791.66;5009945;28;20581;-64
2022/01/29 03:47:57;;;;;;;27.75;12.88;;;;;;;4.07;100.00;101786.50;4993348;28;20030;-64
2022/01/29 03:50:22;;;;;;;26.25;12.18;;;;;;;4.09;100.00;101794.41;4990810;28;20041;-64
2022/01/29 03:52:47;;;;;;;28.45;12.15;;;;;;;4.10;100.00;101777.78;4990501;28;20022;-64
2022/01/29 03:55:13;;;;;;;27.92;11.65;;;;;;;4.09;100.00;101778.63;4990096;28;20470;-64
2022/01/29 03:57:38;;;;;;;27.98;11.80;;;;;;;4.07;100.00;101774.19;4993147;28;20031;-64
2022/01/29 04:00:05;;;;;;;30.17;13.23;;;;;;;4.02;100.00;101781.97;4994159;28;20449;-64
2022/01/29 04:02:31;;;;;;;27.70;11.70;;;;;;;4.11;100.00;101787.44;4994958;28;20035;-66
2022/01/29 04:04:56;;;;;;;27.23;11.95;;;;;;;4.08;100.00;101790.88;5014142;28;20474;-64
2022/01/29 04:07:22;;;;;;;25.48;12.10;;;;;;;4.10;100.00;101790.06;5013325;28;20438;-64
2022/01/29 04:09:52;;;;;;;32.92;12.60;;;;;;;4.04;100.00;101780.28;5012888;28;20028;-64
2022/01/29 04:12:18;;;;;;;26.40;11.73;;;;;;;3.96;100.00;101782.75;5013829;28;20053;-64
2022/01/29 04:14:44;;;;;;;30.30;13.10;;;;;;;3.95;100.00;101772.19;5013514;28;20161;-64
2022/01/29 04:17:11;;;;;;;31.48;14.15;;;;;;;3.95;100.00;101769.56;5013289;28;20105;-64
2022/01/29 04:19:37;;;;;;;25.25;12.55;;;;;;;4.00;100.00;101767.91;5013576;28;20409;-64
2022/01/29 04:22:04;;;;;;;25.58;13.27;;;;;;;3.96;100.00;101760.78;5013653;28;20441;-64
2022/01/29 04:24:31;;;;;;;33.67;12.85;;;;;;;3.91;100.00;101752.81;5013902;28;20390;-64
2022/01/29 04:26:58;;;;;;;25.27;13.48;;;;;;;3.88;100.00;101746.56;5013134;28;20054;-64
2022/01/29 04:29:26;;;;;;;27.92;13.90;;;;;;;3.88;100.00;101746.56;5009274;28;20022;-64
2022/01/29 04:34:20;;;;;;;26.17;13.40;;;;;;;3.83;100.00;101733.31;5013019;28;20077;-64
2022/01/29 04:36:45;;;;;;;29.77;15.00;;;;;;;3.75;100.00;101739.28;5011873;28;20037;-64
2022/01/29 04:39:11;;;;;;;32.75;13.40;;;;;;;3.71;100.00;101732.16;5012188;28;20036;-63
2022/01/29 04:41:36;;;;;;;28.50;14.13;;;;;;;3.67;100.00;101738.22;5013193;28;20181;-63
2022/01/29 04:44:03;;;;;;;30.70;14.35;;;;;;;3.72;100.00;101739.22;5013206;28;20485;-64
2022/01/29 04:46:28;;;;;;;29.83;13.38;;;;;;;3.65;100.00;101732.03;5009715;28;20018;-64
2022/01/29 04:48:54;;;;;;;29.70;12.90;;;;;;;3.59;100.00;101738.03;5013074;28;20052;-64
2022/01/29 04:51:20;;;;;;;27.98;13.60;;;;;;;3.60;100.00;101744.19;5012253;28;20398;-64
2022/01/29 04:53:46;;;;;;;30.52;13.75;;;;;;;3.64;100.00;101751.31;5012876;28;20041;-64
2022/01/29 04:56:11;;;;;;;34.55;14.38;;;;;;;3.69;100.00;101755.78;5013076;28;20040;-64
2022/01/29 04:58:37;;;;;;;32.35;13.70;;;;;;;3.64;100.00;101748.66;5012614;28;20021;-64
2022/01/29 05:01:04;;;;;;;35.42;16.48;;;;;;;3.70;100.00;101761.97;5010823;28;20084;-64
2022/01/29 05:03:29;;;;;;;30.95;14.90;;;;;;;3.75;100.00;101770.84;5004008;28;20061;-64
2022/01/29 05:05:56;;;;;;;29.98;15.40;;;;;;;3.66;100.00;101761.00;4993485;28;20064;-63
2022/01/29 05:08:21;;;;;;;47.28;15.95;;;;;;;3.64;100.00;101759.19;4997471;28;20034;-63
2022/01/29 05:10:47;;;;;;;37.08;15.43;;;;;;;3.65;100.00;101771.50;4992026;28;20026;-64
2022/01/29 05:13:16;;;;;;;36.28;14.23;;;;;;;3.62;100.00;101758.28;4993134;28;20033;-64
2022/01/29 05:29:06;;;;;;;33.28;14.25;;;;;;;3.49;100.00;101787.78;5009797;28;20462;-64
2022/01/29 05:31:32;;;;;;;24.90;12.55;;;;;;;3.59;100.00;101797.66;5012411;28;20022;-64
2022/01/29 05:33:58;;;;;;;23.70;11.15;;;;;;;3.54;100.00;101791.41;4999527;28;20034;-64
2022/01/29 05:36:24;;;;;;;29.33;13.25;;;;;;;3.44;100.00;101777.13;4992570;28;20491;-64
2022/01/29 05:38:50;;;;;;;26.00;12.85;;;;;;;3.38;100.00;101757.66;4992684;28;20405;-64
2022/01/29 05:41:15;;;;;;;30.35;14.23;;;;;;;3.34;100.00;101755.84;4992653;28;20084;-64
2022/01/29 05:43:43;;;;;;;33.60;14.98;;;;;;;3.33;100.00;101761.94;4992609;28;20026;-64
2022/01/29 05:46:11;;;;;;;23.10;13.05;;;;;;;3.34;100.00;101775.16;4992566;28;20045;-64
2022/01/29 05:48:37;;;;;;;32.38;15.13;;;;;;;3.36;100.00;101780.44;4992486;28;20022;-64
2022/01/29 05:51:02;;;;;;;28.98;15.05;;;;;;;3.35;100.00;101773.38;4991865;28;20072;-63
2022/01/29 05:53:28;;;;;;;31.90;17.48;;;;;;;3.36;100.00;101781.31;5001547;28;20025;-65
2022/01/29 05:55:53;;;;;;;26.27;13.95;;;;;;;3.33;100.00;101764.56;5011684;28;20040;-63
2022/01/29 05:58:19;;;;;;;34.47;16.48;;;;;;;3.31;100.00;101766.28;5011812;28;20029;-64
2022/01/29 06:00:44;;;;;;;29.63;14.13;;;;;;;3.37;100.00;101766.44;5012522;28;20402;-63
2022/01/29 06:03:10;;;;;;;32.22;15.52;;;;;;;3.33;100.00;101765.47;5011555;28;20034;-64
2022/01/29 06:05:37;;;;;;;31.42;14.73;;;;;;;3.33;100.00;101751.41;5011868;28;20492;-63
2022/01/29 06:08:03;;;;;;;35.67;15.45;;;;;;;3.35;100.00;101747.09;5011176;28;20061;-64
2022/01/29 06:10:29;;;;;;;33.40;16.08;;;;;;;3.25;100.00;101724.94;5011120;28;20026;-64
2022/01/29 06:12:58;;;;;;;30.38;14.27;;;;;;;3.30;100.00;101736.47;5011362;28;20026;-64
2022/01/29 06:15:24;;;;;;;25.02;12.60;;;;;;;3.32;100.00;101731.25;5011087;28;20109;-63
2022/01/29 06:17:49;;;;;;;39.47;15.10;;;;;;;3.37;100.00;101740.13;5011650;28;20129;-63
2022/01/29 06:20:15;;;;;;;30.48;13.73;;;;;;;3.38;100.00;101734.00;5010159;28;20026;-63
2022/01/29 06:22:42;;;;;;;19.95;11.73;;;;;;;3.34;100.00;101735.69;5011105;28;20038;-63
2022/01/29 06:25:08;;;;;;;30.67;14.70;;;;;;;3.36;100.00;101741.00;5011521;28;20029;-63
2022/01/29 06:27:33;;;;;;;33.42;15.85;;;;;;;3.40;100.00;101750.72;5011194;28;20022;-63
2022/01/29 06:29:58;;;;;;;23.98;11.45;;;;;;;3.45;100.00;101756.97;4995887;28;20116;-63
2022/01/29 06:32:24;;;;;;;32.58;15.50;;;;;;;3.39;100.00;101746.31;4991401;28;20027;-63
2022/01/29 06:34:50;;;;;;;32.90;15.48;;;;;;;3.44;100.00;101749.94;5010651;28;20025;-63
2022/01/29 06:37:15;;;;;;;42.95;17.13;;;;;;;3.45;100.00;101746.44;5010987;28;20080;-63
2022/01/29 06:39:41;;;;;;;31.20;14.82;;;;;;;3.53;100.00;101755.41;5010761;28;20034;-63
2022/01/29 06:42:06;;;;;;;24.83;13.60;;;;;;;3.48;100.00;101733.38;5010389;28;20482;-63
2022/01/29 06:44:31;;;;;;;30.83;15.73;;;;;;;3.48;100.00;101739.53;5010659;28;20030;-63
2022/01/29 06:46:57;;;;;;;28.15;13.82;;;;;;;3.42;100.00;101738.50;5010753;28;20487;-63
2022/01/29 06:49:22;;;;;;;33.97;15.88;;;;;;;3.40;100.00;101732.31;5009186;28;20025;-63
2022/01/29 06:51:48;;;;;;;21.50;13.50;;;;;;;3.43;100.00;101721.84;5008237;28;20096;-63
2022/01/29 06:54:14;;;;;;;34.00;15.38;;;;;;;3.46;100.00;101721.94;5010014;28;20029;-63
2022/01/29 06:56:39;;;;;;;33.47;15.77;;;;;;;3.52;100.00;101728.25;5011301;28;20022;-63
2022/01/29 06:59:04;;;;;;;31.45;14.23;;;;;;;3.56;100.00;101729.16;5008296;28;20123;-63
2022/01/29 07:01:30;;;;;;;35.05;16.10;;;;;;;3.62;100.00;101737.22;4990731;28;20181;-63
2022/01/29 07:03:55;;;;;;;34.60;15.13;;;;;;;3.62;100.00;101722.34;5002448;28;20058;-63
2022/01/29 07:06:21;;;;;;;28.27;12.52;;;;;;;3.59;100.00;101731.91;5003848;28;20044;-63
2022/01/29 07:08:46;;;;;;;32.00;15.27;;;;;;;3.60;100.00;101720.50;4990404;28;20030;-63
2022/01/29 07:11:19;;;;;;;32.15;16.20;;;;;;;3.58;100.00;101730.09;4990271;28;20085;-63
2022/01/29 07:13:44;;;;;;;29.02;13.30;;;;;;;3.51;100.00;101726.44;4992736;28;20076;-63
2022/01/29 07:16:10;;;;;;;35.10;14.93;;;;;;;3.54;100.00;101738.78;4990799;28;20026;-63
2022/01/29 07:18:35;;;;;;;27.83;12.32;;;;;;;3.63;100.00;101744.25;4994863;28;20085;-63
2022/01/29 07:21:00;;;;;;;25.10;12.93;;;;;;;3.65;100.00;101742.53;4990271;28;20104;-64
2022/01/29 07:23:26;;;;;;;18.63;11.55;;;;;;;3.74;100.00;101740.13;4990554;28;20053;-63
2022/01/29 07:25:51;;;;;;;23.00;12.07;;;;;;;3.74;100.00;101737.50;4990911;28;20030;-63
2022/01/29 07:28:17;;;;;;;23.10;11.13;;;;;;;3.72;100.00;101729.53;4989692;28;20026;-63
2022/01/29 07:30:42;;;;;;;28.00;15.23;;;;;;;3.66;100.00;101713.63;4990830;28;20018;-64
2022/01/29 07:33:07;;;;;;;27.15;13.65;;;;;;;3.62;100.00;101709.19;4996415;28;20454;-63
2022/01/29 07:35:33;;;;;;;26.27;13.80;;;;;;;3.62;100.00;101703.91;5014490;28;20098;-63
2022/01/29 07:37:58;;;;;;;29.15;13.98;;;;;;;3.62;100.00;101695.13;5014095;28;20075;-63
2022/01/29 07:40:24;;;;;;;26.20;13.82;;;;;;;3.65;100.00;101700.44;5013486;28;20531;-63
2022/01/29 07:42:49;;;;;;;29.63;15.50;;;;;;;3.58;100.00;101714.31;5008136;28;20022;-64
2022/01/29 07:45:15;;;;;;;32.65;14.98;;;;;;;3.58;100.00;101714.31;4994119;28;20045;-64
2022/01/29 07:47:40;;;;;;;32.55;14.95;;;;;;;3.58;100.00;101709.94;4994614;28;20379;-63
2022/01/29 07:50:06;;;;;;;30.70;14.60;;;;;;;3.63;100.00;101712.69;4994393;28;20157;-63
2022/01/29 07:52:32;;;;;;;31.02;14.60;;;;;;;3.64;100.00;101706.59;4993562;28;20363;-63
2022/01/29 07:54:57;;;;;;;30.88;15.05;;;;;;;3.63;100.00;101703.06;4994825;28;20148;-63
2022/01/29 07:57:23;;;;;;;31.33;14.57;;;;;;;3.88;100.00;101704.47;4994165;28;20482;-63
2022/01/29 07:59:48;;;;;;;32.03;14.18;;;;;;;3.78;100.00;101702.50;4994036;28;20026;-63
2022/01/29 08:02:14;;;;;;;30.40;14.75;;;;;;;3.74;100.00;101705.94;4993901;28;20037;-63
2022/01/29 08:04:39;;;;;;;31.10;14.30;;;;;;;3.67;100.00;101693.47;5012080;28;20037;-63
2022/01/29 08:07:05;;;;;;;34.80;15.63;;;;;;;3.84;100.00;101697.34;5013548;28;20042;-63
2022/01/29 08:09:30;;;;;;;31.98;14.90;;;;;;;3.89;100.00;101696.59;5013654;28;20029;-63
2022/01/29 08:11:55;;;;;;;26.55;13.65;;;;;;;4.00;100.00;101704.72;5013388;28;20112;-63
2022/01/29 08:14:21;;;;;;;30.20;14.55;;;;;;;4.05;100.00;101689.91;5012877;28;20056;-63
2022/01/29 08:17:07;;;;;;;36.13;19.33;;;;;;;4.08;100.00;101696.09;5013300;28;20092;-63
2022/01/29 08:19:33;;;;;;;45.58;20.05;;;;;;;4.14;100.00;101695.34;5013238;28;20041;-63
2022/01/29 08:21:58;;;;;;;33.13;16.08;;;;;;;4.13;100.00;101690.06;5011314;28;20033;-63
2022/01/29 08:24:26;;;;;;;27.55;13.18;;;;;;;4.16;100.00;101685.75;4995670;28;20097;-62
2022/01/29 08:26:52;;;;;;;28.40;14.13;;;;;;;4.10;100.00;101687.38;4993645;28;20479;-63
2022/01/29 08:29:17;;;;;;;30.45;13.43;;;;;;;4.18;100.00;101698.94;4992869;28;20041;-63
2022/01/29 08:31:43;;;;;;;29.92;12.88;;;;;;;4.21;100.00;101704.25;4993907;28;20073;-63
2022/01/29 08:34:08;;;;;;;28.08;13.13;;;;;;;4.27;100.00;101692.09;5006843;28;20021;-63
2022/01/29 08:36:33;;;;;;;30.55;13.98;;;;;;;4.32;100.00;101698.34;5012806;28;20026;-63
2022/01/29 08:38:59;;;;;;;25.33;12.40;;;;;;;4.32;100.00;101690.44;5012748;28;20470;-62
2022/01/29 08:41:24;;;;;;;25.77;11.32;;;;;;;4.30;100.00;101688.66;5012977;28;20029;-63
2022/01/29 08:43:50;;;;;;;26.38;11.70;;;;;;;4.35;100.00;101682.59;5011626;28;20068;-63
2022/01/29 08:46:15;;;;;;;22.88;11.30;;;;;;;4.36;100.00;101691.41;5012716;28;20517;-63
2022/01/29 08:48:41;;;;;;;27.85;12.05;;;;;;;4.56;100.00;101675.13;5010134;28;20484;-63
2022/01/29 08:51:07;;;;;;;23.73;11.00;;;;;;;4.71;99.34;101677.13;5012698;28;20053;-63
2022/01/29 08:53:34;;;;;;;23.75;11.95;;;;;;;4.78;98.20;101676.34;5012993;28;20026;-63
2022/01/29 08:56:00;;;;;;;33.25;15.80;;;;;;;4.86;98.07;101683.53;5012336;28;20022;-63
2022/01/29 08:58:25;;;;;;;20.15;10.95;;;;;;;4.85;97.53;101681.78;5012528;28;20036;-63
2022/01/29 09:00:50;;;;;;;22.52;11.00;;;;;;;4.88;97.18;101680.91;5012349;28;20038;-63
2022/01/29 09:03:17;;;;;;;22.23;10.30;;;;;;;4.77;98.63;101667.56;5005779;28;20038;-63
2022/01/29 09:05:45;;;;;;;21.23;11.85;;;;;;;4.82;98.20;101659.75;4993407;28;20471;-63
2022/01/29 09:08:13;;;;;;;20.25;9.77;;;;;;;4.88;97.26;101667.75;4995188;28;20027;-63
2022/01/29 09:10:39;;;;;;;22.13;11.30;;;;;;;4.89;96.94;101651.94;4992506;28;20030;-63
2022/01/29 09:13:04;;;;;;;21.20;10.18;;;;;;;5.11;96.17;101661.97;4992979;28;20415;-63
2022/01/29 09:15:30;;;;;;;21.52;11.18;;;;;;;5.18;95.94;101669.13;4993008;28;20038;-63
2022/01/29 09:17:55;;;;;;;23.52;11.38;;;;;;;5.51;95.18;101660.81;4997694;28;20073;-63
2022/01/29 09:20:20;;;;;;;23.45;11.48;;;;;;;5.62;93.99;101661.84;4992541;28;20038;-63
2022/01/29 09:22:46;;;;;;;20.52;10.93;;;;;;;5.60;93.00;101660.06;4994654;28;20101;-63
2022/01/29 09:25:12;;;;;;;23.65;10.70;;;;;;;5.63;92.56;101671.56;4994828;28;20101;-63
2022/01/29 09:27:37;;;;;;;18.55;10.13;;;;;;;5.64;92.08;101667.13;4995424;28;20478;-63
2022/01/29 09:30:05;;;;;;;17.88;10.15;;;;;;;5.53;91.88;101659.09;4992157;28;20109;-63
2022/01/29 09:32:30;;;;;;;18.50;9.57;;;;;;;5.48;91.81;101666.06;4992915;28;20391;-63
2022/01/29 09:34:56;;;;;;;22.05;9.02;;;;;;;5.37;92.19;101647.41;5011887;28;20033;-63
2022/01/29 09:37:21;;;;;;;15.50;8.43;;;;;;;5.35;92.76;101643.88;5012608;28;20033;-62
2022/01/29 09:39:47;;;;;;;20.13;8.35;;;;;;;5.35;92.98;101643.00;5006049;28;20053;-63
2022/01/29 09:42:13;;;;;;;19.00;8.23;;;;;;;5.43;92.88;101645.75;4992153;28;20065;-63
2022/01/29 09:44:40;;;;;;;17.17;8.23;;;;;;;5.49;92.66;101635.25;4992497;28;20026;-63
2022/01/29 09:47:06;;;;;;;13.25;6.80;;;;;;;5.51;92.77;101646.72;4991973;28;20045;-63
2022/01/29 09:49:32;;;;;;;18.05;8.05;;;;;;;5.54;92.45;101649.41;4992087;28;20034;-63
2022/01/29 09:51:58;;;;;;;15.88;8.10;;;;;;;5.47;92.83;101650.22;4992445;28;20081;-62
2022/01/29 09:54:23;;;;;;;13.55;6.63;;;;;;;5.33;94.33;101655.28;4990350;28;20018;-63
2022/01/29 09:56:49;;;;;;;13.98;7.20;;;;;;;5.40;94.21;101657.16;4992141;28;20120;-62
2022/01/29 09:59:14;;;;;;;11.90;5.63;;;;;;;5.44;93.42;101663.38;4991828;28;20088;-63
2022/01/29 10:01:40;;;;;;;12.90;6.20;;;;;;;5.48;93.73;101662.53;4992247;28;20034;-63
2022/01/29 10:04:07;;;;;;;11.60;5.70;;;;;;;5.54;93.27;101666.13;5004838;28;20417;-63
2022/01/29 10:06:34;;;;;;;10.77;5.85;;;;;;;5.60;93.00;101663.56;5011072;28;20033;-63
2022/01/29 10:09:01;;;;;;;14.38;5.63;;;;;;;5.73;92.90;101672.56;5009456;28;20032;-63
2022/01/29 10:11:27;;;;;;;11.18;4.90;;;;;;;5.72;91.77;101671.66;5011486;28;20489;-63
2022/01/29 10:14:02;;;;;;;11.13;5.40;;;;;;;5.78;91.58;101665.59;5011063;28;20474;-63
2022/01/29 10:16:29;;;;;;;11.60;5.88;;;;;;;5.68;90.91;101664.59;5010991;28;20030;-63
2022/01/29 10:19:02;;;;;;;9.88;4.75;;;;;;;5.64;91.07;101667.13;5011002;28;20133;-63
2022/01/29 10:21:30;;;;;;;9.27;5.32;;;;;;;5.52;91.01;101656.44;5010850;28;20363;-63
2022/01/29 10:24:19;;;;;;;7.43;4.30;;;;;;;5.46;92.32;101672.16;5010835;28;20061;-62
2022/01/29 10:26:47;;;;;;;9.25;5.45;;;;;;;5.39;92.09;101661.53;5001278;28;20038;-62
2022/01/29 10:29:20;;;;;;;10.48;4.93;;;;;;;5.42;92.41;101639.56;4990863;28;20026;-62
2022/01/29 10:31:51;;;;;;;9.45;4.60;;;;;;;5.41;92.00;101645.72;4991177;28;20033;-62
2022/01/29 10:34:23;;;;;;;9.80;4.47;;;;;;;5.33;92.00;101643.00;5005799;28;20037;-63
2022/01/29 10:37:20;;;;;;;9.50;4.70;;;;;;;5.36;91.20;101647.41;5010919;28;20049;-63
2022/01/29 10:39:49;;;;;;;10.05;5.05;;;;;;;5.26;90.70;101643.75;5010535;28;20030;-62
2022/01/29 10:42:33;;;;;;;8.50;4.15;;;;;;;5.28;90.59;101646.41;5010375;28;20042;-63
2022/01/29 10:45:02;;;;;;;9.63;4.88;;;;;;;5.24;91.21;101640.19;5007377;28;20033;-63
2022/01/29 10:47:29;;;;;;;9.77;4.10;;;;;;;5.22;91.77;101641.91;5010895;28;20381;-62
2022/01/29 10:50:02;;;;;;;10.32;4.90;;;;;;;5.24;91.24;101634.94;5010354;28;20053;-63
2022/01/29 10:52:33;;;;;;;11.38;4.63;;;;;;;5.17;90.92;101633.06;5006764;28;20474;-63
2022/01/29 10:55:03;;;;;;;10.15;4.70;;;;;;;5.12;91.50;101603.09;4996569;28;20490;-63
2022/01/29 10:57:34;;;;;;;10.02;3.90;;;;;;;5.20;91.02;101625.22;5010974;28;20492;-63
2022/01/29 11:00:01;;;;;;;8.27;4.85;;;;;;;5.29;91.21;101627.97;5001276;28;20387;-63
2022/01/29 11:02:30;;;;;;;8.15;4.60;;;;;;;5.44;90.79;101623.78;4988577;28;20056;-64
2022/01/29 11:04:56;;;;;;;9.30;4.70;;;;;;;5.40;89.80;101599.97;4989530;28;20089;-63
2022/01/29 11:07:27;;;;;;;9.30;5.10;;;;;;;5.84;88.99;101607.59;4990202;28;20034;-63
2022/01/29 11:09:53;;;;;;;7.93;4.43;;;;;;;6.11;87.48;101608.78;4997600;28;20105;-63
2022/01/29 11:12:27;;;;;;;11.30;5.68;;;;;;;6.21;87.11;101607.16;5010398;28;20434;-63
2022/01/29 11:14:55;;;;;;;7.18;4.45;;;;;;;6.10;86.23;101598.22;5005749;28;20040;-63
2022/01/29 11:17:23;;;;;;;9.93;5.43;;;;;;;6.16;86.77;101600.94;5010537;28;20042;-63
2022/01/29 11:19:49;;;;;;;9.02;4.63;;;;;;;6.20;87.05;101608.00;5004985;28;20030;-63
2022/01/29 11:22:21;;;;;;;9.82;5.00;;;;;;;6.27;86.44;101609.84;4990397;28;20030;-63
2022/01/29 11:24:48;;;;;;;9.70;5.13;;;;;;;6.06;86.06;101589.38;5004468;28;20065;-63
2022/01/29 11:27:23;;;;;;;10.65;4.72;;;;;;;6.16;87.21;101596.50;5004166;28;20026;-63
2022/01/29 11:29:57;;;;;;;8.60;4.95;;;;;;;6.13;87.06;101593.84;4990093;28;20118;-63